Time;durP1;ratioP1;P1;durP2;ratioP2;P2;SDS_P1;SDS_P2;PMS_P1;PMS_P2;Temp;Humidity;BMP_temperature;BMP_pressure;BME280_temperature;BME280_humidity;BME280_pressure;Samples;Min_cycle;Max_cycle;Signal;HPM_P1;HPM_P2
2024/02/07 00:00:30;;;;;;;11.00;2.08;;;;;;;-146.27;94.27;41772.66;5066039;28;20107;-74
2024/02/07 00:02:55;;;;;;;13.57;2.05;;;;;;;-146.27;94.05;41796.53;5067406;28;20035;-74
2024/02/07 00:05:20;;;;;;;6.65;0.90;;;;;;;-146.27;93.89;41840.28;5063206;28;20025;-74
2024/02/07 00:07:46;;;;;;;11.20;1.52;;;;;;;-146.27;94.14;41808.47;5059632;28;20766;-74
2024/02/07 00:10:11;;;;;;;10.32;1.08;;;;;;;-146.27;94.15;41824.38;5069451;28;20036;-74
2024/02/07 00:12:37;;;;;;;8.27;1.20;;;;;;;-146.27;94.35;41782.59;5069284;28;20040;-74
2024/02/07 00:15:04;;;;;;;7.35;0.85;;;;;;;-146.27;94.05;41796.53;5061745;28;20028;-74
2024/02/07 00:17:30;;;;;;;8.02;0.90;;;;;;;-146.27;93.88;41816.41;5067389;28;20039;-74
2024/02/07 00:19:55;;;;;;;8.30;0.80;;;;;;;-146.27;94.17;41814.41;5069333;28;20028;-74
2024/02/07 00:22:20;;;;;;;10.43;1.33;;;;;;;-146.27;94.17;41812.44;5062947;28;20795;-74
2024/02/07 00:24:46;;;;;;;3.22;0.50;;;;;;;-146.27;94.23;41822.38;5059441;28;20889;-75
2024/02/07 00:27:11;;;;;;;11.65;1.05;;;;;;;-146.27;94.06;41888.00;5066846;28;20033;-74
2024/02/07 00:29:37;;;;;;;6.25;0.90;;;;;;;-146.27;94.27;41830.34;5066855;28;20028;-74
2024/02/07 00:32:02;;;;;;;14.80;1.25;;;;;;;-146.27;94.27;41824.38;5065345;28;20112;-74
2024/02/07 00:34:28;;;;;;;6.32;0.93;;;;;;;-146.27;94.24;41810.44;5060149;28;20060;-74
2024/02/07 00:36:53;;;;;;;12.40;1.10;;;;;;;-146.27;94.50;41802.50;5066074;28;20124;-74
2024/02/07 00:39:18;;;;;;;11.52;1.35;;;;;;;-146.27;94.05;41812.44;5064526;28;20028;-74
2024/02/07 00:41:44;;;;;;;10.85;1.10;;;;;;;-146.27;94.01;41858.16;5064126;28;20035;-74
2024/02/07 00:44:10;;;;;;;15.13;1.58;;;;;;;-146.27;94.24;41808.47;5065502;28;20369;-74
2024/02/07 00:46:35;;;;;;;16.35;1.00;;;;;;;-146.27;94.42;41820.38;5065079;28;20082;-74
2024/02/07 00:49:03;;;;;;;7.28;0.93;;;;;;;-146.27;94.07;41866.13;5065976;28;20107;-75
2024/02/07 00:51:29;;;;;;;3.25;0.85;;;;;;;-146.27;94.48;41854.19;5065900;28;20033;-75
2024/02/07 00:53:55;;;;;;;5.70;1.15;;;;;;;-146.27;93.97;41933.72;5068075;28;20056;-74
2024/02/07 00:56:20;;;;;;;13.13;0.98;;;;;;;-146.27;93.97;41959.56;5065114;28;20059;-75
2024/02/07 00:58:46;;;;;;;11.73;1.02;;;;;;;-146.27;93.63;41991.41;5064786;28;20661;-74
2024/02/07 01:01:12;;;;;;;15.20;1.00;;;;;;;-146.27;93.66;41995.38;5055966;28;20075;-74
2024/02/07 01:03:38;;;;;;;11.10;1.58;;;;;;;-146.27;93.68;41991.41;5065499;28;20020;-73
2024/02/07 01:06:04;;;;;;;10.20;0.85;;;;;;;-146.27;93.43;42035.16;5060068;28;20040;-73
2024/02/07 01:08:29;;;;;;;3.25;0.60;;;;;;;-146.27;93.76;42037.13;5067710;28;20074;-74
2024/02/07 01:10:55;;;;;;;12.55;1.10;;;;;;;-146.27;93.99;41981.44;5068274;28;20450;-74
2024/02/07 01:13:20;;;;;;;8.80;0.80;;;;;;;-146.27;93.62;42029.19;5067649;28;20020;-74
2024/02/07 01:15:46;;;;;;;7.75;0.85;;;;;;;-146.27;93.97;42039.13;5067885;28;20036;-74
2024/02/07 01:18:11;;;;;;;3.38;0.47;;;;;;;-146.27;93.98;41999.34;5059960;28;20032;-74
2024/02/07 01:20:36;;;;;;;10.98;0.82;;;;;;;-146.27;93.92;42007.31;5056553;28;20025;-74
2024/02/07 01:23:02;;;;;;;14.57;1.17;;;;;;;-146.27;94.18;41987.41;5051799;28;20115;-74
2024/02/07 01:25:27;;;;;;;8.75;2.05;;;;;;;-146.27;93.97;42009.28;5059730;28;20702;-74
2024/02/07 01:27:54;;;;;;;3.55;0.93;;;;;;;-146.27;93.97;42007.31;5056213;28;20025;-74
2024/02/07 01:30:20;;;;;;;15.45;1.48;;;;;;;-146.27;94.13;41991.41;5068937;28;20024;-74
2024/02/07 01:32:45;;;;;;;10.88;1.25;;;;;;;-146.27;94.24;41997.34;5055481;28;20032;-74
2024/02/07 01:35:11;;;;;;;11.45;1.08;;;;;;;-146.27;94.49;41971.50;5060539;28;20029;-74
2024/02/07 01:37:38;;;;;;;12.48;1.00;;;;;;;-146.27;94.18;41981.44;5059002;28;20079;-74
2024/02/07 01:40:10;;;;;;;6.22;1.13;;;;;;;-146.27;94.15;42017.25;5060947;28;20108;-73
2024/02/07 01:42:36;;;;;;;10.20;0.70;;;;;;;-146.27;94.46;42001.34;5057938;28;20032;-74
2024/02/07 01:45:20;;;;;;;21.33;1.02;;;;;;;-146.27;94.19;41989.41;5064565;28;20066;-74
2024/02/07 01:47:45;;;;;;;7.63;0.60;;;;;;;-146.27;93.87;42035.16;5066906;28;20027;-73
2024/02/07 01:50:10;;;;;;;8.70;0.98;;;;;;;-146.27;93.85;42070.94;5048594;28;20029;-73
2024/02/07 01:52:39;;;;;;;8.50;0.93;;;;;;;-146.27;93.95;42027.19;5066135;28;20068;-73
2024/02/07 01:55:05;;;;;;;8.73;1.00;;;;;;;-146.27;94.02;42084.84;5067908;28;20799;-74
2024/02/07 01:57:32;;;;;;;5.55;0.95;;;;;;;-146.27;93.84;42082.88;5066745;28;20036;-74
2024/02/07 01:59:58;;;;;;;8.73;0.73;;;;;;;-146.27;93.74;42110.72;5064210;28;20036;-74
2024/02/07 02:02:25;;;;;;;7.63;1.00;;;;;;;-146.27;94.08;42092.81;5064781;28;20081;-74
2024/02/07 02:04:51;;;;;;;8.13;0.70;;;;;;;-146.27;93.84;42082.88;5065946;28;20028;-74
2024/02/07 02:07:17;;;;;;;9.13;1.05;;;;;;;-146.27;94.22;42090.81;5055693;28;20032;-75
2024/02/07 02:09:43;;;;;;;16.38;1.30;;;;;;;-146.27;94.24;42055.03;5068022;28;20020;-74
2024/02/07 02:12:11;;;;;;;8.30;0.65;;;;;;;-146.27;93.91;42106.72;5064538;28;20435;-74
2024/02/07 02:14:36;;;;;;;3.53;0.63;;;;;;;-146.27;93.63;42130.59;5065158;28;20032;-74
2024/02/07 02:17:01;;;;;;;8.93;0.95;;;;;;;-146.27;93.67;42134.56;5067754;28;20553;-74
2024/02/07 02:19:27;;;;;;;11.18;1.20;;;;;;;-146.27;93.44;42176.34;5071867;28;20039;-72
2024/02/07 02:21:58;;;;;;;13.60;0.85;;;;;;;-146.27;93.81;42146.50;5059212;28;20385;-75
2024/02/07 02:24:52;;;;;;;4.45;0.43;;;;;;;-146.27;93.68;42128.59;5071704;28;20028;-74
2024/02/07 02:27:29;;;;;;;;;;;;;;;-146.27;93.93;42150.47;5070832;28;20082;-73
2024/02/07 02:29:58;;;;;;;4.20;0.35;;;;;;;-146.27;93.89;42170.38;5063911;28;20360;-73
2024/02/07 02:32:25;;;;;;;7.70;0.80;;;;;;;-146.27;94.13;42166.38;5072686;28;20550;-73
2024/02/07 02:34:52;;;;;;;13.07;1.50;;;;;;;-146.27;93.80;42178.31;5071551;28;20118;-73
2024/02/07 02:37:21;;;;;;;13.23;0.80;;;;;;;-146.27;93.70;42222.06;5066044;28;20040;-73
2024/02/07 02:39:47;;;;;;;7.32;0.80;;;;;;;-146.27;93.58;42236.00;5069044;28;20035;-74
2024/02/07 02:42:13;;;;;;;11.95;1.38;;;;;;;-146.27;93.52;42259.84;5059434;28;20052;-74
2024/02/07 02:44:38;;;;;;;6.05;0.90;;;;;;;-146.27;93.44;42313.53;5068259;28;20503;-74
2024/02/07 02:47:04;;;;;;;4.40;0.80;;;;;;;-146.27;93.49;42273.78;5063021;28;20060;-73
2024/02/07 02:49:29;;;;;;;7.55;0.93;;;;;;;-146.27;93.42;42287.69;5062393;28;20063;-74
2024/02/07 02:51:55;;;;;;;5.93;0.82;;;;;;;-146.27;93.73;42277.75;5067194;28;20078;-74
2024/02/07 02:54:21;;;;;;;8.23;1.20;;;;;;;-146.27;93.72;42265.81;5069035;28;20039;-74
2024/02/07 02:56:46;;;;;;;7.50;1.05;;;;;;;-146.27;93.60;42291.66;5068887;28;20389;-74
2024/02/07 02:59:14;;;;;;;10.27;1.10;;;;;;;-146.27;93.49;42329.47;5064285;28;20036;-74
2024/02/07 03:01:39;;;;;;;10.48;1.67;;;;;;;-146.27;93.19;42311.56;5069076;28;20066;-74
2024/02/07 03:04:06;;;;;;;8.88;0.95;;;;;;;-146.27;93.19;42363.25;5062526;28;20043;-74
2024/02/07 03:06:50;;;;;;;8.98;0.98;;;;;;;-146.27;93.14;42385.13;5070041;28;20052;-74
2024/02/07 03:09:21;;;;;;;7.40;1.23;;;;;;;-146.27;93.14;42389.13;5060713;28;20028;-73
2024/02/07 03:11:48;;;;;;;8.45;1.10;;;;;;;-146.27;93.09;42409.00;5062595;28;20107;-75
2024/02/07 03:14:14;;;;;;;7.78;0.90;;;;;;;-146.27;93.14;42403.03;5067732;28;20492;-74
2024/02/07 03:16:39;;;;;;;5.85;1.08;;;;;;;-146.27;93.25;42412.97;5054820;28;20052;-74
2024/02/07 03:19:05;;;;;;;7.10;1.70;;;;;;;-146.27;93.37;42412.97;5060770;28;20028;-74
2024/02/07 03:21:30;;;;;;;12.02;1.48;;;;;;;-146.27;93.06;42452.75;5059998;28;20058;-74
2024/02/07 03:23:56;;;;;;;19.42;1.67;;;;;;;-146.27;93.06;42460.72;5068378;28;20032;-74
2024/02/07 03:26:22;;;;;;;13.90;1.33;;;;;;;-146.27;92.81;42472.66;5052377;28;20040;-74
2024/02/07 03:28:49;;;;;;;8.90;0.82;;;;;;;-146.27;93.00;42496.50;5066354;28;20025;-74
2024/02/07 03:31:15;;;;;;;4.25;1.02;;;;;;;-146.27;92.92;42494.53;5065373;28;20028;-74
2024/02/07 03:33:43;;;;;;;11.65;0.98;;;;;;;-146.27;93.03;42524.34;5068967;28;20048;-73
2024/02/07 03:36:09;;;;;;;9.07;1.02;;;;;;;-146.27;93.02;42498.50;5067525;28;20111;-73
2024/02/07 03:38:34;;;;;;;9.70;0.90;;;;;;;-146.27;93.00;42528.31;5061861;28;20128;-73
2024/02/07 03:41:00;;;;;;;8.07;1.25;;;;;;;-146.27;93.01;42494.53;5057764;28;20037;-73
2024/02/07 03:43:27;;;;;;;5.35;1.30;;;;;;;-146.27;93.17;42510.44;5052537;28;20048;-73
2024/02/07 03:45:52;;;;;;;11.27;1.92;;;;;;;-146.27;93.10;42528.31;5069056;28;20024;-73
2024/02/07 03:48:18;;;;;;;12.30;1.10;;;;;;;-146.27;93.18;42496.50;5069141;28;20142;-72
2024/02/07 03:50:43;;;;;;;9.75;0.93;;;;;;;-146.27;93.18;42542.25;5067591;28;20016;-72
2024/02/07 03:53:08;;;;;;;14.05;1.40;;;;;;;-146.27;93.47;42520.38;5064037;28;20103;-74
2024/02/07 03:55:37;;;;;;;10.38;1.10;;;;;;;-146.27;93.29;42506.44;5065851;28;20099;-74
2024/02/07 03:58:05;;;;;;;11.95;1.40;;;;;;;-146.27;93.38;42504.47;5067315;28;20107;-74
2024/02/07 04:00:30;;;;;;;7.78;0.82;;;;;;;-146.27;93.23;42488.56;5068897;28;20369;-74
2024/02/07 04:02:57;;;;;;;6.00;1.08;;;;;;;-146.27;93.03;42486.56;5069790;28;20111;-73
2024/02/07 04:05:23;;;;;;;9.95;1.35;;;;;;;-146.27;93.28;42496.50;5069746;28;20431;-74
2024/02/07 04:07:50;;;;;;;8.82;1.00;;;;;;;-146.27;93.12;42512.41;5059918;28;20028;-74
2024/02/07 04:10:18;;;;;;;8.77;0.98;;;;;;;-146.27;93.25;42520.38;5063719;28;20067;-74
2024/02/07 05:15:29;;;;;;;;;;;;;;;-146.27;93.53;42468.66;5056327;28;20039;-73
2024/02/07 05:17:54;;;;;;;10.00;1.17;;;;;;;-146.27;93.67;42424.91;5060737;28;20316;-73
2024/02/07 05:20:19;;;;;;;13.52;1.08;;;;;;;-146.27;93.49;42474.63;5062774;28;20384;-73
2024/02/07 05:22:45;;;;;;;8.48;1.40;;;;;;;-146.27;93.63;42448.78;5068588;28;20725;-73
2024/02/07 05:25:11;;;;;;;11.95;1.65;;;;;;;-146.27;93.46;42450.75;5052953;28;20443;-73
2024/02/07 05:27:37;;;;;;;16.80;1.20;;;;;;;-146.27;94.01;42409.00;5055296;28;20033;-73
2024/02/07 05:30:03;;;;;;;5.47;0.98;;;;;;;-146.27;93.54;42428.88;5062138;28;20112;-73
2024/02/07 05:32:29;;;;;;;8.50;1.23;;;;;;;-146.27;93.38;42478.59;5065667;28;20147;-73
2024/02/07 05:34:54;;;;;;;11.55;1.27;;;;;;;-146.27;93.17;42482.59;5067353;28;20033;-74
2024/02/07 05:37:20;;;;;;;13.98;2.15;;;;;;;-146.27;93.36;42492.53;5065821;28;20029;-72
2024/02/07 05:39:46;;;;;;;9.52;1.23;;;;;;;-146.27;93.36;42482.59;5065066;28;20024;-73
2024/02/07 05:42:11;;;;;;;6.72;1.20;;;;;;;-146.27;93.46;42450.75;5059566;28;20490;-73
2024/02/07 05:44:36;;;;;;;13.80;1.48;;;;;;;-146.27;93.44;42464.69;5060644;28;20040;-73
2024/02/07 05:47:02;;;;;;;19.77;1.67;;;;;;;-146.27;93.43;42498.50;5067578;28;20027;-73
2024/02/07 05:49:29;;;;;;;16.20;1.35;;;;;;;-146.27;93.92;42434.84;5068243;28;20488;-73
2024/02/07 05:52:00;;;;;;;15.07;2.03;;;;;;;-146.27;94.19;42411.00;5065307;28;20033;-72
2024/02/07 05:54:26;;;;;;;15.85;2.10;;;;;;;-146.27;93.72;42456.72;5072148;28;20029;-73
2024/02/07 05:56:51;;;;;;;8.90;1.40;;;;;;;-146.27;94.20;42401.06;5072752;28;20074;-73
2024/02/07 05:59:17;;;;;;;9.63;1.38;;;;;;;-146.27;94.51;42383.16;5068102;28;20020;-73
2024/02/07 06:01:44;;;;;;;12.73;1.95;;;;;;;-146.27;94.49;42401.06;5064862;28;20495;-73
2024/02/07 06:04:10;;;;;;;11.63;1.40;;;;;;;-146.27;94.46;42389.13;5074796;28;20530;-73
2024/02/07 06:06:36;;;;;;;9.63;1.25;;;;;;;-146.27;94.47;42373.22;5065953;28;20024;-76
2024/02/07 06:09:04;;;;;;;14.35;2.05;;;;;;;-146.27;94.52;42375.19;5065393;28;20563;-74
2024/02/07 06:11:32;;;;;;;12.05;1.85;;;;;;;-146.27;94.67;42381.16;5063633;28;20100;-74
2024/02/07 06:13:59;;;;;;;14.73;3.33;;;;;;;-146.27;94.54;42369.22;5065962;28;20550;-73
2024/02/07 06:16:25;;;;;;;13.13;1.90;;;;;;;-146.27;94.11;42420.94;5070461;28;20012;-72
2024/02/07 06:18:50;;;;;;;17.23;1.67;;;;;;;-146.27;94.00;42448.78;5074185;28;20093;-73
2024/02/07 06:21:16;;;;;;;18.40;1.95;;;;;;;-146.27;93.87;42440.81;5069921;28;20103;-74
2024/02/07 06:23:41;;;;;;;11.65;1.75;;;;;;;-146.27;94.12;42432.88;5070073;28;20116;-73
2024/02/07 06:26:07;;;;;;;24.33;2.53;;;;;;;-146.27;94.08;42428.88;5068769;28;20060;-73
2024/02/07 06:28:32;;;;;;;32.60;2.50;;;;;;;-146.27;94.08;42432.88;5059182;28;20021;-73
2024/02/07 06:30:58;;;;;;;19.60;2.15;;;;;;;-146.27;94.08;42407.00;5071210;28;20115;-73
2024/02/07 06:33:23;;;;;;;22.92;2.38;;;;;;;-146.27;93.92;42470.66;5075406;28;20083;-74
2024/02/07 06:35:48;;;;;;;23.23;2.33;;;;;;;-146.27;93.79;42476.63;5062308;28;20130;-74
2024/02/07 06:38:14;;;;;;;30.00;3.30;;;;;;;-146.27;93.73;42452.75;5068300;28;20035;-73
2024/02/07 06:40:40;;;;;;;30.25;3.33;;;;;;;-146.27;93.68;42488.56;5071754;28;20029;-73
2024/02/07 06:43:06;;;;;;;33.88;3.00;;;;;;;-146.27;93.95;42472.66;5070788;28;20077;-74
2024/02/07 06:45:31;;;;;;;25.60;2.75;;;;;;;-146.27;93.74;42472.66;5071047;28;20423;-73
2024/02/07 06:47:56;;;;;;;30.25;2.97;;;;;;;-146.27;93.70;42496.50;5073158;28;20020;-73
2024/02/07 06:50:24;;;;;;;30.58;2.63;;;;;;;-146.27;93.86;42496.50;5075783;28;20024;-73
2024/02/07 06:52:50;;;;;;;32.67;3.13;;;;;;;-146.27;93.89;42464.69;5074929;28;20066;-73
2024/02/07 06:55:16;;;;;;;38.03;3.13;;;;;;;-146.27;93.66;42486.56;5072835;28;20099;-74
2024/02/07 06:57:41;;;;;;;14.52;2.05;;;;;;;-146.27;93.86;42490.53;5073877;28;20020;-73
2024/02/07 07:00:07;;;;;;;21.77;3.83;;;;;;;-146.27;93.71;42492.53;5072808;28;20118;-71
2024/02/07 07:02:33;;;;;;;34.58;2.97;;;;;;;-146.27;93.93;42494.53;5072796;28;20031;-72
2024/02/07 07:04:58;;;;;;;39.22;3.22;;;;;;;-146.27;94.02;42472.66;5073567;28;20024;-72
2024/02/07 07:07:24;;;;;;;34.35;2.67;;;;;;;-146.27;94.01;42486.56;5074591;28;20029;-72
2024/02/07 07:09:49;;;;;;;23.35;3.08;;;;;;;-146.27;94.16;42472.66;5072090;28;20480;-72
2024/02/07 07:12:14;;;;;;;24.13;2.35;;;;;;;-146.27;93.96;42452.75;5069976;28;20036;-72
2024/02/07 07:14:40;;;;;;;36.50;3.53;;;;;;;-146.27;94.08;42486.56;5070901;28;20032;-72
2024/02/07 07:17:06;;;;;;;24.10;2.47;;;;;;;-146.27;94.22;42428.88;5072928;28;20042;-72
2024/02/07 07:19:32;;;;;;;25.67;3.63;;;;;;;-146.27;93.97;42484.56;5071545;28;20426;-73
2024/02/07 07:21:57;;;;;;;19.15;2.78;;;;;;;-146.27;93.77;42496.50;5071798;28;20032;-72
2024/02/07 07:24:23;;;;;;;23.80;2.50;;;;;;;-146.27;93.81;42516.41;5071400;28;20024;-74
2024/02/07 07:26:48;;;;;;;24.58;3.42;;;;;;;-146.27;93.63;42550.22;5072274;28;20028;-72
2024/02/07 07:29:13;;;;;;;22.25;3.30;;;;;;;-146.27;94.24;42514.41;5069471;28;20024;-74
2024/02/07 07:31:39;;;;;;;19.15;3.65;;;;;;;-146.27;94.34;42508.44;5070356;28;20085;-73
2024/02/07 07:34:04;;;;;;;29.20;2.90;;;;;;;-146.27;94.46;42520.38;5078660;28;20147;-72
2024/02/07 07:36:29;;;;;;;18.65;2.30;;;;;;;-146.27;94.23;42532.31;5079702;28;20025;-73
2024/02/07 07:38:55;;;;;;;23.80;3.03;;;;;;;-146.27;94.75;42530.31;5066752;28;20077;-73
2024/02/07 07:41:21;;;;;;;16.58;2.17;;;;;;;-146.27;94.21;42584.00;5065494;28;20727;-72
2024/02/07 07:43:47;;;;;;;21.50;3.35;;;;;;;-146.27;94.25;42599.94;5071659;28;20561;-73
2024/02/07 07:46:12;;;;;;;28.55;4.53;;;;;;;-146.27;94.16;42591.97;5067626;28;20055;-73
2024/02/07 07:48:39;;;;;;;25.67;2.88;;;;;;;-146.27;94.70;42570.09;5054867;28;20123;-72
2024/02/07 07:51:08;;;;;;;29.13;2.63;;;;;;;-146.27;94.38;42629.75;5060626;28;20036;-72
2024/02/07 07:53:33;;;;;;;34.10;3.30;;;;;;;-146.27;94.05;42667.53;5062191;28;20393;-72
2024/02/07 07:55:59;;;;;;;28.80;3.08;;;;;;;-146.27;94.53;42621.81;5065659;28;20032;-73
2024/02/07 07:58:24;;;;;;;18.85;2.38;;;;;;;-146.27;94.36;42667.53;5058977;28;20024;-71
2024/02/07 08:00:50;;;;;;;33.55;3.53;;;;;;;-146.27;94.09;42671.53;5069169;28;20464;-71
2024/02/07 08:03:15;;;;;;;21.55;3.50;;;;;;;-146.27;94.61;42657.59;5062974;28;20423;-73
2024/02/07 08:05:41;;;;;;;16.83;3.40;;;;;;;-146.27;94.03;42691.41;5063454;28;20776;-73
2024/02/07 08:08:07;;;;;;;27.38;3.42;;;;;;;-146.27;94.11;42715.28;5068040;28;20020;-73
2024/02/07 08:10:34;;;;;;;24.48;2.55;;;;;;;-146.27;94.32;42735.16;5064337;28;20503;-72
2024/02/07 08:13:00;;;;;;;36.70;3.40;;;;;;;-146.27;94.32;42739.16;5062871;28;20047;-73
2024/02/07 08:15:25;;;;;;;19.35;2.45;;;;;;;-146.27;94.07;42768.97;5058062;28;20499;-73
2024/02/07 08:17:51;;;;;;;26.33;3.28;;;;;;;-146.27;94.30;42770.97;5061636;28;20051;-72
2024/02/07 08:20:16;;;;;;;35.28;2.72;;;;;;;-146.27;94.11;42814.72;5062147;28;20055;-72
2024/02/07 08:22:42;;;;;;;18.27;2.40;;;;;;;-146.27;94.06;42844.56;5068455;28;20503;-73
2024/02/07 08:25:08;;;;;;;33.17;3.03;;;;;;;-146.27;93.84;42886.31;5061447;28;20098;-72
2024/02/07 08:27:33;;;;;;;18.92;3.15;;;;;;;-146.27;93.78;42942.00;5073505;28;20150;-73
2024/02/07 08:30:00;;;;;;;29.85;3.47;;;;;;;-146.27;93.84;42981.78;5074534;28;20032;-73
2024/02/07 08:32:26;;;;;;;22.58;3.30;;;;;;;-146.27;93.67;42997.72;5070810;28;20016;-74
2024/02/07 08:34:52;;;;;;;14.38;2.20;;;;;;;-146.27;93.69;43023.56;5059428;28;20415;-74
2024/02/07 08:37:21;;;;;;;19.17;2.42;;;;;;;-146.27;93.83;43049.41;5065142;28;20032;-72
2024/02/07 08:39:47;;;;;;;32.03;2.60;;;;;;;-146.27;93.79;43079.25;5067014;28;20031;-72
2024/02/07 08:42:12;;;;;;;21.25;2.75;;;;;;;-146.27;93.73;43107.09;5073461;28;20024;-73
2024/02/07 08:44:38;;;;;;;34.05;2.78;;;;;;;-146.27;93.90;43119.03;5065150;28;20115;-75
2024/02/07 08:47:04;;;;;;;23.58;2.45;;;;;;;-146.27;93.87;43140.91;5066645;28;20028;-75
2024/02/07 08:49:29;;;;;;;27.17;3.55;;;;;;;-146.27;93.60;43176.72;5062110;28;20029;-73
2024/02/07 08:51:56;;;;;;;17.08;2.63;;;;;;;-146.27;93.65;43174.72;5066183;28;20119;-75
2024/02/07 08:54:21;;;;;;;29.30;4.35;;;;;;;-146.27;94.21;43176.72;5068147;28;20036;-74
2024/02/07 08:56:47;;;;;;;27.77;3.60;;;;;;;-146.27;94.28;43192.63;5072477;28;20405;-74
2024/02/07 08:59:13;;;;;;;22.95;2.72;;;;;;;-146.27;93.81;43260.25;5067969;28;20572;-74
2024/02/07 09:01:38;;;;;;;14.75;2.15;;;;;;;-146.27;93.76;43272.19;5068613;28;20590;-75
2024/02/07 09:04:04;;;;;;;23.70;3.30;;;;;;;-146.27;93.60;43327.91;5066456;28;20035;-73
2024/02/07 09:06:29;;;;;;;25.75;3.30;;;;;;;-146.27;93.03;43355.75;5070802;28;20385;-74
2024/02/07 09:08:55;;;;;;;32.30;3.17;;;;;;;-146.27;92.34;43415.41;5068781;28;20362;-74
2024/02/07 09:11:20;;;;;;;27.05;3.10;;;;;;;-146.27;92.90;43391.56;5068858;28;20028;-75
2024/02/07 09:13:46;;;;;;;21.40;3.00;;;;;;;-146.27;92.95;43395.53;5068675;28;20388;-72
2024/02/07 09:16:11;;;;;;;29.70;3.78;;;;;;;-146.27;92.12;43443.28;5067458;28;20024;-73
2024/02/07 09:18:38;;;;;;;34.33;3.35;;;;;;;-146.27;92.08;43477.09;5068224;28;20020;-72
2024/02/07 09:21:04;;;;;;;34.67;3.80;;;;;;;-146.27;91.53;43447.25;5062195;28;20528;-73
2024/02/07 09:23:30;;;;;;;24.85;3.88;;;;;;;-146.27;91.17;43475.09;5061875;28;20067;-73
2024/02/07 09:25:56;;;;;;;24.48;3.10;;;;;;;-146.27;90.28;43556.66;5073825;28;20028;-79
2024/02/07 09:28:21;;;;;;;24.70;2.65;;;;;;;-146.27;91.18;43457.19;5073654;28;20082;-75
2024/02/07 09:30:47;;;;;;;24.08;3.03;;;;;;;-146.27;90.50;43495.00;5065980;28;20686;-75
2024/02/07 09:33:14;;;;;;;26.75;2.60;;;;;;;-146.27;90.76;43493.00;5067074;28;20048;-75
2024/02/07 09:35:41;;;;;;;16.65;2.60;;;;;;;-146.27;90.82;43495.00;5064727;28;20473;-75
2024/02/07 09:38:06;;;;;;;28.23;3.03;;;;;;;-146.27;90.59;43502.94;5055927;28;20043;-75
2024/02/07 09:40:32;;;;;;;18.17;1.90;;;;;;;-146.27;90.46;43530.81;5059206;28;20016;-75
2024/02/07 09:42:59;;;;;;;30.52;3.83;;;;;;;-146.27;90.23;43576.56;5061159;28;20036;-75
2024/02/07 09:45:31;;;;;;;26.67;3.25;;;;;;;-146.27;90.40;43546.72;5063512;28;20082;-75
2024/02/07 09:48:03;;;;;;;15.65;2.25;;;;;;;-146.27;90.19;43538.75;5060370;28;20392;-74
2024/02/07 09:50:29;;;;;;;22.73;3.05;;;;;;;-146.27;89.35;43614.34;5056259;28;20103;-74
2024/02/07 09:52:56;;;;;;;29.63;4.25;;;;;;;-146.27;89.79;43614.34;5063892;28;20107;-74
2024/02/07 09:55:22;;;;;;;27.48;3.50;;;;;;;-146.27;89.51;43654.13;5057644;28;20097;-74
2024/02/07 09:57:50;;;;;;;20.95;3.63;;;;;;;-146.27;89.82;43662.09;5066913;28;20021;-75
2024/02/07 10:00:17;;;;;;;21.55;3.63;;;;;;;-146.27;89.39;43650.16;5060320;28;20499;-74
2024/02/07 10:02:48;;;;;;;24.60;3.33;;;;;;;-146.27;88.89;43678.00;5060820;28;20020;-74
2024/02/07 10:05:19;;;;;;;12.75;2.85;;;;;;;-146.27;88.58;43682.00;5057749;28;20073;-73
2024/02/07 10:07:50;;;;;;;21.67;2.70;;;;;;;-146.27;88.38;43773.50;5074639;28;20024;-74
2024/02/07 10:10:16;;;;;;;15.07;2.92;;;;;;;-146.27;87.84;43793.41;5060793;28;20032;-75
2024/02/07 10:12:41;;;;;;;14.70;2.45;;;;;;;-146.27;87.84;43779.47;5058745;28;20075;-74
2024/02/07 10:15:08;;;;;;;23.15;2.50;;;;;;;-146.27;88.01;43809.31;5053688;28;20033;-74
2024/02/07 10:17:34;;;;;;;20.33;2.97;;;;;;;-146.27;87.72;43781.47;5082405;28;20529;-73
2024/02/07 10:20:06;;;;;;;18.10;2.45;;;;;;;-146.27;87.24;43835.16;5067840;28;20060;-75
2024/02/07 10:22:38;;;;;;;28.88;2.88;;;;;;;-146.27;86.62;43884.91;5068865;28;20021;-76
2024/02/07 10:25:10;;;;;;;26.73;2.88;;;;;;;-146.27;86.55;43932.66;5068045;28;20025;-75
2024/02/07 10:27:35;;;;;;;17.08;2.85;;;;;;;-146.27;86.07;43984.38;5077087;28;20029;-74
2024/02/07 10:30:04;;;;;;;13.70;2.05;;;;;;;-146.27;85.89;43922.72;5067571;28;20119;-74
2024/02/07 10:32:30;;;;;;;16.20;2.42;;;;;;;-146.27;85.94;43948.56;5068589;28;20128;-74
2024/02/07 10:34:56;;;;;;;17.45;2.35;;;;;;;-146.27;83.16;44205.22;5066284;28;20048;-75
2024/02/07 10:37:21;;;;;;;25.13;2.58;;;;;;;-146.27;83.35;44187.31;5077370;28;20035;-74
2024/02/07 10:39:48;;;;;;;9.70;1.90;;;;;;;-146.27;83.03;44193.28;5064236;28;20055;-74
2024/02/07 10:42:17;;;;;;;17.40;2.33;;;;;;;-146.27;82.34;44207.22;5072854;28;20032;-74
2024/02/07 10:44:42;;;;;;;15.43;2.25;;;;;;;-146.27;81.76;44233.06;5072349;28;20032;-74
2024/02/07 10:47:10;;;;;;;16.42;2.85;;;;;;;-146.27;79.34;44442.00;5072046;28;20500;-75
2024/02/07 10:49:36;;;;;;;18.88;2.20;;;;;;;-146.27;78.49;44475.81;5066716;28;20115;-75
2024/02/07 10:52:02;;;;;;;17.00;2.28;;;;;;;-146.27;77.81;44656.91;5073065;28;20042;-75
2024/02/07 10:54:29;;;;;;;18.40;2.80;;;;;;;-146.27;78.11;44642.97;5065359;28;20056;-74
2024/02/07 10:56:59;;;;;;;11.05;2.00;;;;;;;-146.27;78.35;44629.03;5078531;28;20028;-74
2024/02/07 10:59:26;;;;;;;18.85;2.22;;;;;;;-146.27;75.81;44837.97;5069955;28;20025;-75
2024/02/07 11:01:52;;;;;;;17.33;1.80;;;;;;;-146.27;74.22;45100.66;5071977;28;20024;-74
2024/02/07 11:04:18;;;;;;;19.70;1.92;;;;;;;-146.27;75.54;45007.13;5071914;28;20566;-74
2024/02/07 11:06:44;;;;;;;15.75;2.08;;;;;;;-146.27;75.02;45005.13;5073226;28;20055;-75
2024/02/07 11:09:10;;;;;;;11.98;2.05;;;;;;;-146.27;71.32;45212.09;5069730;28;20098;-74
2024/02/07 11:11:36;;;;;;;14.43;2.20;;;;;;;-146.27;73.34;45170.31;5069221;28;20024;-74
2024/02/07 11:14:03;;;;;;;14.20;2.28;;;;;;;-146.27;71.17;45283.75;5072487;28;20438;-75
2024/02/07 11:16:28;;;;;;;13.25;2.13;;;;;;;-146.27;71.55;45186.22;5075281;28;20079;-73
2024/02/07 11:18:53;;;;;;;16.90;2.15;;;;;;;-146.27;70.84;45269.81;5072436;28;20028;-75
2024/02/07 11:21:26;;;;;;;17.50;2.65;;;;;;;-146.27;66.97;45353.41;5070666;28;20025;-75
2024/02/07 11:23:54;;;;;;;11.48;1.90;;;;;;;-146.27;67.31;45425.06;5055714;28;20024;-74
2024/02/07 11:26:20;;;;;;;9.20;1.67;;;;;;;-146.27;65.36;45504.66;5075886;28;20036;-74
2024/02/07 11:28:46;;;;;;;17.55;1.83;;;;;;;-146.27;61.54;45751.47;5072380;28;20028;-74
2024/02/07 11:31:14;;;;;;;10.25;2.55;;;;;;;-146.27;62.66;45715.63;5069847;28;20031;-74
2024/02/07 11:33:43;;;;;;;21.00;2.10;;;;;;;-146.27;64.76;45727.56;5070936;28;20567;-74
2024/02/07 11:36:16;;;;;;;19.77;1.80;;;;;;;-146.27;67.15;45614.13;5072163;28;20115;-74
2024/02/07 11:38:55;;;;;;;15.50;2.83;;;;;;;-146.27;59.00;45831.09;5072464;28;20035;-74
2024/02/07 11:41:21;;;;;;;10.20;2.00;;;;;;;-146.27;60.65;45841.03;5069161;28;20375;-74
2024/02/07 11:43:53;;;;;;;14.20;2.58;;;;;;;-146.27;59.00;46085.88;5070366;28;20028;-74
2024/02/07 11:46:21;;;;;;;21.75;2.45;;;;;;;-146.27;63.09;45900.75;5074830;28;20060;-74
2024/02/07 11:48:53;;;;;;;9.88;1.77;;;;;;;-146.27;57.29;45990.31;5071524;28;20060;-74
2024/02/07 11:51:23;;;;;;;9.27;1.58;;;;;;;-146.27;58.78;45890.78;5069235;28;20476;-73
2024/02/07 11:53:48;;;;;;;10.23;1.77;;;;;;;-146.27;57.69;45952.50;5064862;28;20024;-74
2024/02/07 11:56:20;;;;;;;6.43;1.60;;;;;;;-146.27;58.10;45946.53;5073919;28;20047;-74
2024/02/07 11:58:49;;;;;;;16.25;1.95;;;;;;;-146.27;55.21;45958.47;5070964;28;20064;-74
2024/02/07 12:01:16;;;;;;;20.70;2.05;;;;;;;-146.27;55.66;46137.63;5062519;28;20047;-74
2024/02/07 12:03:41;;;;;;;11.50;2.08;;;;;;;-146.27;56.65;45986.34;5070734;28;20025;-73
2024/02/07 12:06:11;;;;;;;13.50;1.58;;;;;;;-146.27;54.27;45906.72;5069131;28;20025;-74
2024/02/07 12:08:37;;;;;;;15.70;1.95;;;;;;;-146.27;50.70;45926.63;5070593;28;20104;-74
2024/02/07 12:11:06;;;;;;;18.30;1.70;;;;;;;-146.27;52.98;46061.97;5070258;28;20017;-72